sensor_id;sensor_type;location;lat;lon;timestamp;P1;durP1;ratioP1;P2;durP2;ratioP2
27225;SDS011;14732;51.074;3.788;2023-05-17T00:00:34;8.60;;;2.60;;
27225;SDS011;14732;51.074;3.788;2023-05-17T00:03:00;14.00;;;2.70;;
27225;SDS011;14732;51.074;3.788;2023-05-17T00:05:25;10.73;;;2.60;;
27225;SDS011;14732;51.074;3.788;2023-05-17T00:07:51;8.55;;;2.50;;
27225;SDS011;14732;51.074;3.788;2023-05-17T00:10:16;10.50;;;2.55;;
27225;SDS011;14732;51.074;3.788;2023-05-17T00:12:42;9.10;;;2.60;;
27225;SDS011;14732;51.074;3.788;2023-05-17T00:15:08;9.40;;;2.78;;
27225;SDS011;14732;51.074;3.788;2023-05-17T00:17:34;9.32;;;3.00;;
27225;SDS011;14732;51.074;3.788;2023-05-17T00:20:02;10.52;;;3.03;;
27225;SDS011;14732;51.074;3.788;2023-05-17T00:22:28;15.02;;;3.17;;
27225;SDS011;14732;51.074;3.788;2023-05-17T00:24:55;10.63;;;2.90;;
27225;SDS011;14732;51.074;3.788;2023-05-17T00:27:20;12.13;;;2.60;;
27225;SDS011;14732;51.074;3.788;2023-05-17T00:29:46;11.68;;;2.75;;
27225;SDS011;14732;51.074;3.788;2023-05-17T00:32:12;10.00;;;2.75;;
27225;SDS011;14732;51.074;3.788;2023-05-17T00:34:37;12.85;;;2.88;;
27225;SDS011;14732;51.074;3.788;2023-05-17T00:37:03;11.30;;;3.15;;
27225;SDS011;14732;51.074;3.788;2023-05-17T00:39:28;7.80;;;2.97;;
27225;SDS011;14732;51.074;3.788;2023-05-17T00:41:54;11.82;;;3.45;;
27225;SDS011;14732;51.074;3.788;2023-05-17T00:44:20;12.85;;;2.90;;
27225;SDS011;14732;51.074;3.788;2023-05-17T00:46:45;15.93;;;2.95;;
27225;SDS011;14732;51.074;3.788;2023-05-17T00:49:11;14.23;;;2.95;;
27225;SDS011;14732;51.074;3.788;2023-05-17T00:51:37;9.95;;;3.15;;
27225;SDS011;14732;51.074;3.788;2023-05-17T00:54:03;10.30;;;3.20;;
27225;SDS011;14732;51.074;3.788;2023-05-17T00:56:30;8.93;;;3.42;;
27225;SDS011;14732;51.074;3.788;2023-05-17T00:58:56;15.25;;;3.17;;
27225;SDS011;14732;51.074;3.788;2023-05-17T01:01:22;10.57;;;3.30;;
27225;SDS011;14732;51.074;3.788;2023-05-17T01:03:50;8.68;;;3.42;;
27225;SDS011;14732;51.074;3.788;2023-05-17T01:06:16;10.02;;;3.10;;
27225;SDS011;14732;51.074;3.788;2023-05-17T01:08:42;10.35;;;3.10;;
27225;SDS011;14732;51.074;3.788;2023-05-17T01:16:32;13.50;;;4.20;;
27225;SDS011;14732;51.074;3.788;2023-05-17T01:19:31;12.38;;;4.78;;
27225;SDS011;14732;51.074;3.788;2023-05-17T01:30:25;14.77;;;3.40;;
27225;SDS011;14732;51.074;3.788;2023-05-17T01:32:56;10.82;;;3.80;;
27225;SDS011;14732;51.074;3.788;2023-05-17T01:35:23;8.85;;;4.05;;
27225;SDS011;14732;51.074;3.788;2023-05-17T01:37:50;9.23;;;4.10;;
27225;SDS011;14732;51.074;3.788;2023-05-17T01:40:17;10.52;;;3.47;;
27225;SDS011;14732;51.074;3.788;2023-05-17T01:42:44;12.35;;;4.22;;
27225;SDS011;14732;51.074;3.788;2023-05-17T01:48:00;10.32;;;4.05;;
27225;SDS011;14732;51.074;3.788;2023-05-17T01:50:55;8.73;;;3.40;;
27225;SDS011;14732;51.074;3.788;2023-05-17T01:53:24;13.02;;;4.07;;
27225;SDS011;14732;51.074;3.788;2023-05-17T01:55:55;9.15;;;3.70;;
27225;SDS011;14732;51.074;3.788;2023-05-17T01:58:25;11.05;;;3.88;;
27225;SDS011;14732;51.074;3.788;2023-05-17T02:00:55;12.27;;;3.83;;
27225;SDS011;14732;51.074;3.788;2023-05-17T02:03:22;11.45;;;4.20;;
27225;SDS011;14732;51.074;3.788;2023-05-17T02:05:48;8.52;;;3.92;;
27225;SDS011;14732;51.074;3.788;2023-05-17T02:08:14;10.20;;;3.45;;
27225;SDS011;14732;51.074;3.788;2023-05-17T02:10:40;11.75;;;3.92;;
27225;SDS011;14732;51.074;3.788;2023-05-17T02:13:05;10.65;;;3.90;;
27225;SDS011;14732;51.074;3.788;2023-05-17T02:15:31;7.43;;;3.90;;
27225;SDS011;14732;51.074;3.788;2023-05-17T02:17:57;14.68;;;4.00;;
27225;SDS011;14732;51.074;3.788;2023-05-17T02:20:22;9.88;;;4.13;;
27225;SDS011;14732;51.074;3.788;2023-05-17T02:22:48;8.43;;;4.22;;
27225;SDS011;14732;51.074;3.788;2023-05-17T02:25:14;8.05;;;4.30;;
27225;SDS011;14732;51.074;3.788;2023-05-17T02:27:40;12.90;;;5.72;;
27225;SDS011;14732;51.074;3.788;2023-05-17T02:30:06;9.57;;;4.30;;
27225;SDS011;14732;51.074;3.788;2023-05-17T02:32:32;9.27;;;3.95;;
27225;SDS011;14732;51.074;3.788;2023-05-17T02:34:58;12.90;;;4.80;;
27225;SDS011;14732;51.074;3.788;2023-05-17T02:37:23;11.27;;;4.35;;
27225;SDS011;14732;51.074;3.788;2023-05-17T02:39:50;9.35;;;4.57;;
27225;SDS011;14732;51.074;3.788;2023-05-17T02:42:15;10.57;;;4.60;;
27225;SDS011;14732;51.074;3.788;2023-05-17T02:44:41;10.15;;;4.70;;
27225;SDS011;14732;51.074;3.788;2023-05-17T02:47:07;9.40;;;4.40;;
27225;SDS011;14732;51.074;3.788;2023-05-17T02:49:32;13.88;;;4.88;;
27225;SDS011;14732;51.074;3.788;2023-05-17T02:51:58;13.95;;;5.05;;
27225;SDS011;14732;51.074;3.788;2023-05-17T02:54:24;13.60;;;5.32;;
27225;SDS011;14732;51.074;3.788;2023-05-17T02:56:50;13.63;;;5.57;;
27225;SDS011;14732;51.074;3.788;2023-05-17T02:59:16;17.30;;;5.75;;
27225;SDS011;14732;51.074;3.788;2023-05-17T03:01:41;17.48;;;5.65;;
27225;SDS011;14732;51.074;3.788;2023-05-17T03:04:07;17.27;;;6.45;;
27225;SDS011;14732;51.074;3.788;2023-05-17T03:06:33;14.10;;;5.75;;
27225;SDS011;14732;51.074;3.788;2023-05-17T03:08:58;15.13;;;5.88;;
27225;SDS011;14732;51.074;3.788;2023-05-17T03:11:24;14.35;;;5.45;;
27225;SDS011;14732;51.074;3.788;2023-05-17T03:13:50;11.63;;;5.47;;
27225;SDS011;14732;51.074;3.788;2023-05-17T03:16:16;14.82;;;5.47;;
27225;SDS011;14732;51.074;3.788;2023-05-17T03:18:42;11.98;;;6.18;;
27225;SDS011;14732;51.074;3.788;2023-05-17T03:21:08;15.15;;;5.97;;
27225;SDS011;14732;51.074;3.788;2023-05-17T03:23:34;11.30;;;5.97;;
27225;SDS011;14732;51.074;3.788;2023-05-17T03:25:59;14.18;;;5.55;;
27225;SDS011;14732;51.074;3.788;2023-05-17T03:28:25;14.02;;;5.75;;
27225;SDS011;14732;51.074;3.788;2023-05-17T03:30:51;12.60;;;5.95;;
27225;SDS011;14732;51.074;3.788;2023-05-17T03:33:17;12.82;;;5.72;;
27225;SDS011;14732;51.074;3.788;2023-05-17T03:35:43;19.30;;;6.32;;
27225;SDS011;14732;51.074;3.788;2023-05-17T03:38:10;14.38;;;6.35;;
27225;SDS011;14732;51.074;3.788;2023-05-17T03:40:36;14.90;;;6.35;;
27225;SDS011;14732;51.074;3.788;2023-05-17T03:43:02;17.63;;;6.57;;
27225;SDS011;14732;51.074;3.788;2023-05-17T03:45:28;15.68;;;5.70;;
27225;SDS011;14732;51.074;3.788;2023-05-17T03:47:54;12.43;;;5.93;;
27225;SDS011;14732;51.074;3.788;2023-05-17T03:50:20;22.08;;;6.85;;
27225;SDS011;14732;51.074;3.788;2023-05-17T03:52:45;12.98;;;5.53;;
27225;SDS011;14732;51.074;3.788;2023-05-17T03:55:11;14.25;;;5.82;;
27225;SDS011;14732;51.074;3.788;2023-05-17T03:57:37;13.50;;;6.28;;
27225;SDS011;14732;51.074;3.788;2023-05-17T04:00:02;14.23;;;5.97;;
27225;SDS011;14732;51.074;3.788;2023-05-17T04:02:34;14.65;;;6.57;;
27225;SDS011;14732;51.074;3.788;2023-05-17T04:05:00;14.77;;;7.32;;
27225;SDS011;14732;51.074;3.788;2023-05-17T04:07:25;11.38;;;6.38;;
27225;SDS011;14732;51.074;3.788;2023-05-17T04:09:51;17.55;;;6.68;;
27225;SDS011;14732;51.074;3.788;2023-05-17T04:12:17;9.65;;;5.80;;
27225;SDS011;14732;51.074;3.788;2023-05-17T04:14:43;15.00;;;6.75;;
27225;SDS011;14732;51.074;3.788;2023-05-17T04:17:08;18.02;;;6.90;;
27225;SDS011;14732;51.074;3.788;2023-05-17T04:19:34;17.27;;;6.47;;
27225;SDS011;14732;51.074;3.788;2023-05-17T04:22:00;18.60;;;6.43;;
27225;SDS011;14732;51.074;3.788;2023-05-17T04:24:25;17.17;;;6.53;;
27225;SDS011;14732;51.074;3.788;2023-05-17T04:26:51;12.43;;;6.03;;
27225;SDS011;14732;51.074;3.788;2023-05-17T04:29:17;13.88;;;6.70;;
27225;SDS011;14732;51.074;3.788;2023-05-17T04:31:42;13.75;;;5.82;;
27225;SDS011;14732;51.074;3.788;2023-05-17T04:34:08;16.52;;;6.70;;
27225;SDS011;14732;51.074;3.788;2023-05-17T04:36:33;14.30;;;6.70;;
27225;SDS011;14732;51.074;3.788;2023-05-17T04:38:59;19.08;;;6.90;;
27225;SDS011;14732;51.074;3.788;2023-05-17T04:41:27;15.35;;;6.53;;
27225;SDS011;14732;51.074;3.788;2023-05-17T04:43:53;15.02;;;7.18;;
27225;SDS011;14732;51.074;3.788;2023-05-17T04:46:18;12.38;;;6.63;;
27225;SDS011;14732;51.074;3.788;2023-05-17T04:48:44;20.40;;;7.03;;
27225;SDS011;14732;51.074;3.788;2023-05-17T04:51:11;13.70;;;7.03;;
27225;SDS011;14732;51.074;3.788;2023-05-17T04:53:36;17.88;;;7.38;;
27225;SDS011;14732;51.074;3.788;2023-05-17T04:56:02;19.50;;;7.03;;
27225;SDS011;14732;51.074;3.788;2023-05-17T04:58:28;16.60;;;7.80;;
27225;SDS011;14732;51.074;3.788;2023-05-17T05:00:53;22.30;;;7.85;;
27225;SDS011;14732;51.074;3.788;2023-05-17T05:03:21;20.30;;;8.18;;
27225;SDS011;14732;51.074;3.788;2023-05-17T05:05:47;17.63;;;7.18;;
27225;SDS011;14732;51.074;3.788;2023-05-17T05:08:12;18.33;;;7.75;;
27225;SDS011;14732;51.074;3.788;2023-05-17T05:10:40;17.55;;;7.63;;
27225;SDS011;14732;51.074;3.788;2023-05-17T05:13:05;20.13;;;7.57;;
27225;SDS011;14732;51.074;3.788;2023-05-17T05:15:31;18.77;;;7.95;;
27225;SDS011;14732;51.074;3.788;2023-05-17T05:17:57;19.63;;;7.88;;
27225;SDS011;14732;51.074;3.788;2023-05-17T05:20:23;20.98;;;7.93;;
27225;SDS011;14732;51.074;3.788;2023-05-17T05:22:48;17.88;;;7.60;;
27225;SDS011;14732;51.074;3.788;2023-05-17T05:25:14;19.25;;;7.15;;
27225;SDS011;14732;51.074;3.788;2023-05-17T05:27:40;26.60;;;7.68;;
27225;SDS011;14732;51.074;3.788;2023-05-17T05:30:05;18.63;;;7.55;;
27225;SDS011;14732;51.074;3.788;2023-05-17T05:32:31;17.83;;;7.40;;
27225;SDS011;14732;51.074;3.788;2023-05-17T05:34:57;16.17;;;7.68;;
27225;SDS011;14732;51.074;3.788;2023-05-17T05:37:23;16.42;;;8.07;;
27225;SDS011;14732;51.074;3.788;2023-05-17T05:39:49;18.45;;;7.53;;
27225;SDS011;14732;51.074;3.788;2023-05-17T05:42:15;20.83;;;7.90;;
27225;SDS011;14732;51.074;3.788;2023-05-17T05:44:41;21.10;;;7.85;;
27225;SDS011;14732;51.074;3.788;2023-05-17T05:47:06;18.13;;;7.22;;
27225;SDS011;14732;51.074;3.788;2023-05-17T05:49:32;29.48;;;7.50;;
27225;SDS011;14732;51.074;3.788;2023-05-17T05:51:57;27.80;;;7.53;;
27225;SDS011;14732;51.074;3.788;2023-05-17T05:54:23;20.83;;;6.97;;
27225;SDS011;14732;51.074;3.788;2023-05-17T05:56:49;17.33;;;6.65;;
27225;SDS011;14732;51.074;3.788;2023-05-17T05:59:15;12.75;;;5.07;;
27225;SDS011;14732;51.074;3.788;2023-05-17T06:01:41;13.48;;;3.90;;
27225;SDS011;14732;51.074;3.788;2023-05-17T06:04:06;13.13;;;3.88;;
27225;SDS011;14732;51.074;3.788;2023-05-17T06:06:32;10.93;;;3.67;;
27225;SDS011;14732;51.074;3.788;2023-05-17T06:08:57;12.18;;;3.60;;
27225;SDS011;14732;51.074;3.788;2023-05-17T06:11:24;12.45;;;3.25;;
27225;SDS011;14732;51.074;3.788;2023-05-17T06:13:50;20.63;;;3.80;;
27225;SDS011;14732;51.074;3.788;2023-05-17T06:16:15;13.30;;;3.85;;
27225;SDS011;14732;51.074;3.788;2023-05-17T06:18:41;11.68;;;2.97;;
27225;SDS011;14732;51.074;3.788;2023-05-17T06:21:07;8.75;;;3.00;;
27225;SDS011;14732;51.074;3.788;2023-05-17T06:23:32;10.88;;;3.35;;
27225;SDS011;14732;51.074;3.788;2023-05-17T06:25:58;8.82;;;3.10;;
27225;SDS011;14732;51.074;3.788;2023-05-17T06:28:24;10.55;;;3.67;;
27225;SDS011;14732;51.074;3.788;2023-05-17T06:30:50;13.57;;;4.18;;
27225;SDS011;14732;51.074;3.788;2023-05-17T06:33:16;13.60;;;3.33;;
27225;SDS011;14732;51.074;3.788;2023-05-17T06:35:42;9.75;;;3.42;;
27225;SDS011;14732;51.074;3.788;2023-05-17T06:38:08;11.25;;;3.25;;
27225;SDS011;14732;51.074;3.788;2023-05-17T06:40:34;8.85;;;3.42;;
27225;SDS011;14732;51.074;3.788;2023-05-17T06:43:00;8.60;;;3.30;;
27225;SDS011;14732;51.074;3.788;2023-05-17T06:45:26;10.07;;;3.50;;
27225;SDS011;14732;51.074;3.788;2023-05-17T06:47:52;12.15;;;3.78;;
27225;SDS011;14732;51.074;3.788;2023-05-17T06:50:18;9.60;;;3.40;;
27225;SDS011;14732;51.074;3.788;2023-05-17T06:52:43;12.82;;;3.85;;
27225;SDS011;14732;51.074;3.788;2023-05-17T06:55:10;16.05;;;3.92;;
27225;SDS011;14732;51.074;3.788;2023-05-17T06:57:36;12.02;;;4.38;;
27225;SDS011;14732;51.074;3.788;2023-05-17T07:00:02;10.00;;;3.58;;
27225;SDS011;14732;51.074;3.788;2023-05-17T07:02:30;12.93;;;3.83;;
27225;SDS011;14732;51.074;3.788;2023-05-17T07:04:56;9.38;;;3.70;;
27225;SDS011;14732;51.074;3.788;2023-05-17T07:07:22;10.63;;;3.03;;
27225;SDS011;14732;51.074;3.788;2023-05-17T07:09:48;21.05;;;9.23;;
27225;SDS011;14732;51.074;3.788;2023-05-17T07:12:13;23.55;;;9.20;;
27225;SDS011;14732;51.074;3.788;2023-05-17T07:14:39;13.70;;;5.13;;
27225;SDS011;14732;51.074;3.788;2023-05-17T07:17:05;16.63;;;5.20;;
27225;SDS011;14732;51.074;3.788;2023-05-17T07:19:32;29.48;;;13.02;;
27225;SDS011;14732;51.074;3.788;2023-05-17T07:21:58;30.13;;;12.85;;
27225;SDS011;14732;51.074;3.788;2023-05-17T07:24:23;30.20;;;11.10;;
27225;SDS011;14732;51.074;3.788;2023-05-17T07:26:49;10.50;;;3.53;;
27225;SDS011;14732;51.074;3.788;2023-05-17T07:29:16;9.00;;;4.00;;
27225;SDS011;14732;51.074;3.788;2023-05-17T07:31:41;9.32;;;3.38;;
27225;SDS011;14732;51.074;3.788;2023-05-17T07:34:07;17.85;;;5.75;;
27225;SDS011;14732;51.074;3.788;2023-05-17T07:36:32;12.48;;;4.75;;
27225;SDS011;14732;51.074;3.788;2023-05-17T07:38:58;14.43;;;5.05;;
27225;SDS011;14732;51.074;3.788;2023-05-17T07:41:24;12.07;;;4.95;;
27225;SDS011;14732;51.074;3.788;2023-05-17T07:43:51;10.75;;;4.50;;
27225;SDS011;14732;51.074;3.788;2023-05-17T07:46:17;9.88;;;3.50;;
27225;SDS011;14732;51.074;3.788;2023-05-17T07:48:42;11.48;;;3.70;;
27225;SDS011;14732;51.074;3.788;2023-05-17T07:51:08;12.55;;;3.20;;
27225;SDS011;14732;51.074;3.788;2023-05-17T07:53:34;9.90;;;3.50;;
27225;SDS011;14732;51.074;3.788;2023-05-17T07:55:59;6.55;;;2.90;;
27225;SDS011;14732;51.074;3.788;2023-05-17T07:58:25;14.73;;;3.45;;
27225;SDS011;14732;51.074;3.788;2023-05-17T08:00:51;9.27;;;3.17;;
27225;SDS011;14732;51.074;3.788;2023-05-17T08:03:16;7.43;;;2.95;;
27225;SDS011;14732;51.074;3.788;2023-05-17T08:05:42;8.05;;;2.65;;
27225;SDS011;14732;51.074;3.788;2023-05-17T08:08:08;6.75;;;2.83;;
27225;SDS011;14732;51.074;3.788;2023-05-17T08:10:33;6.53;;;2.30;;
27225;SDS011;14732;51.074;3.788;2023-05-17T08:13:01;11.18;;;2.90;;
27225;SDS011;14732;51.074;3.788;2023-05-17T08:15:28;8.38;;;2.67;;
27225;SDS011;14732;51.074;3.788;2023-05-17T08:17:54;10.45;;;2.42;;
27225;SDS011;14732;51.074;3.788;2023-05-17T08:20:20;11.15;;;3.05;;
27225;SDS011;14732;51.074;3.788;2023-05-17T08:22:46;9.40;;;2.38;;
27225;SDS011;14732;51.074;3.788;2023-05-17T08:25:12;14.25;;;2.88;;
27225;SDS011;14732;51.074;3.788;2023-05-17T08:27:38;9.48;;;2.38;;
27225;SDS011;14732;51.074;3.788;2023-05-17T08:30:04;7.15;;;2.35;;
27225;SDS011;14732;51.074;3.788;2023-05-17T08:32:30;8.05;;;1.98;;
27225;SDS011;14732;51.074;3.788;2023-05-17T08:34:56;8.88;;;2.13;;
27225;SDS011;14732;51.074;3.788;2023-05-17T08:37:21;8.25;;;2.20;;
27225;SDS011;14732;51.074;3.788;2023-05-17T08:39:47;8.32;;;2.53;;
27225;SDS011;14732;51.074;3.788;2023-05-17T08:42:14;9.68;;;2.33;;
27225;SDS011;14732;51.074;3.788;2023-05-17T08:44:51;7.25;;;1.98;;
27225;SDS011;14732;51.074;3.788;2023-05-17T08:47:19;6.32;;;2.53;;
27225;SDS011;14732;51.074;3.788;2023-05-17T08:49:56;9.98;;;2.65;;
27225;SDS011;14732;51.074;3.788;2023-05-17T08:52:28;7.90;;;3.08;;
27225;SDS011;14732;51.074;3.788;2023-05-17T08:54:56;9.13;;;3.60;;
27225;SDS011;14732;51.074;3.788;2023-05-17T08:57:32;6.32;;;3.50;;
27225;SDS011;14732;51.074;3.788;2023-05-17T09:00:02;8.30;;;2.80;;
27225;SDS011;14732;51.074;3.788;2023-05-17T09:02:39;7.65;;;2.50;;
27225;SDS011;14732;51.074;3.788;2023-05-17T09:05:06;7.53;;;2.38;;
27225;SDS011;14732;51.074;3.788;2023-05-17T09:07:33;5.28;;;2.13;;
27225;SDS011;14732;51.074;3.788;2023-05-17T09:09:59;6.20;;;2.17;;
27225;SDS011;14732;51.074;3.788;2023-05-17T09:12:27;8.88;;;2.00;;
27225;SDS011;14732;51.074;3.788;2023-05-17T09:14:53;7.15;;;2.00;;
27225;SDS011;14732;51.074;3.788;2023-05-17T09:17:37;9.30;;;2.15;;
27225;SDS011;14732;51.074;3.788;2023-05-17T09:20:05;11.43;;;2.70;;
27225;SDS011;14732;51.074;3.788;2023-05-17T09:22:32;6.43;;;2.30;;
27225;SDS011;14732;51.074;3.788;2023-05-17T09:24:59;10.18;;;1.92;;
27225;SDS011;14732;51.074;3.788;2023-05-17T09:27:29;6.88;;;2.08;;
27225;SDS011;14732;51.074;3.788;2023-05-17T09:29:55;7.35;;;2.10;;
27225;SDS011;14732;51.074;3.788;2023-05-17T09:32:22;7.85;;;1.60;;
27225;SDS011;14732;51.074;3.788;2023-05-17T09:34:49;7.50;;;1.65;;
27225;SDS011;14732;51.074;3.788;2023-05-17T09:37:20;7.80;;;2.78;;
27225;SDS011;14732;51.074;3.788;2023-05-17T09:39:47;11.13;;;2.70;;
27225;SDS011;14732;51.074;3.788;2023-05-17T09:42:13;9.13;;;2.13;;
27225;SDS011;14732;51.074;3.788;2023-05-17T09:44:50;7.20;;;1.63;;
27225;SDS011;14732;51.074;3.788;2023-05-17T09:47:21;9.60;;;1.95;;
27225;SDS011;14732;51.074;3.788;2023-05-17T09:49:59;13.73;;;3.35;;
27225;SDS011;14732;51.074;3.788;2023-05-17T09:52:27;9.50;;;1.95;;
27225;SDS011;14732;51.074;3.788;2023-05-17T09:54:57;6.40;;;1.90;;
27225;SDS011;14732;51.074;3.788;2023-05-17T09:57:25;7.05;;;1.80;;
27225;SDS011;14732;51.074;3.788;2023-05-17T09:59:55;9.98;;;2.58;;
27225;SDS011;14732;51.074;3.788;2023-05-17T10:02:25;9.93;;;1.85;;
27225;SDS011;14732;51.074;3.788;2023-05-17T10:04:54;10.55;;;1.88;;
27225;SDS011;14732;51.074;3.788;2023-05-17T10:07:22;6.20;;;1.48;;
27225;SDS011;14732;51.074;3.788;2023-05-17T10:09:50;8.45;;;1.42;;
27225;SDS011;14732;51.074;3.788;2023-05-17T10:12:17;9.98;;;1.40;;
27225;SDS011;14732;51.074;3.788;2023-05-17T10:14:46;15.45;;;3.22;;
27225;SDS011;14732;51.074;3.788;2023-05-17T10:17:13;6.35;;;1.48;;
27225;SDS011;14732;51.074;3.788;2023-05-17T10:19:39;7.47;;;1.50;;
27225;SDS011;14732;51.074;3.788;2023-05-17T10:22:05;9.50;;;1.63;;
27225;SDS011;14732;51.074;3.788;2023-05-17T10:24:31;8.75;;;2.00;;
27225;SDS011;14732;51.074;3.788;2023-05-17T10:27:01;7.65;;;1.73;;
27225;SDS011;14732;51.074;3.788;2023-05-17T10:29:28;11.73;;;3.10;;
27225;SDS011;14732;51.074;3.788;2023-05-17T10:31:58;8.88;;;1.80;;
27225;SDS011;14732;51.074;3.788;2023-05-17T10:34:32;6.65;;;2.17;;
27225;SDS011;14732;51.074;3.788;2023-05-17T10:37:02;10.40;;;3.80;;
27225;SDS011;14732;51.074;3.788;2023-05-17T10:39:29;18.70;;;5.82;;
27225;SDS011;14732;51.074;3.788;2023-05-17T10:41:58;13.18;;;3.90;;
27225;SDS011;14732;51.074;3.788;2023-05-17T10:44:28;9.05;;;3.08;;
27225;SDS011;14732;51.074;3.788;2023-05-17T10:46:57;10.15;;;2.50;;
27225;SDS011;14732;51.074;3.788;2023-05-17T10:49:34;14.00;;;2.78;;
27225;SDS011;14732;51.074;3.788;2023-05-17T10:52:11;12.25;;;3.20;;
27225;SDS011;14732;51.074;3.788;2023-05-17T10:54:40;14.98;;;2.70;;
27225;SDS011;14732;51.074;3.788;2023-05-17T10:57:07;11.93;;;3.33;;
27225;SDS011;14732;51.074;3.788;2023-05-17T10:59:33;6.65;;;2.38;;
27225;SDS011;14732;51.074;3.788;2023-05-17T11:04:35;11.25;;;1.90;;
27225;SDS011;14732;51.074;3.788;2023-05-17T11:12:37;9.82;;;2.85;;
27225;SDS011;14732;51.074;3.788;2023-05-17T11:15:15;7.68;;;2.40;;
27225;SDS011;14732;51.074;3.788;2023-05-17T11:20:08;11.82;;;3.00;;
27225;SDS011;14732;51.074;3.788;2023-05-17T11:25:47;7.60;;;1.85;;
27225;SDS011;14732;51.074;3.788;2023-05-17T11:28:19;10.07;;;1.58;;
27225;SDS011;14732;51.074;3.788;2023-05-17T11:30:46;7.80;;;1.83;;
27225;SDS011;14732;51.074;3.788;2023-05-17T11:33:16;5.47;;;1.27;;
27225;SDS011;14732;51.074;3.788;2023-05-17T11:35:42;9.82;;;2.10;;
27225;SDS011;14732;51.074;3.788;2023-05-17T11:40:40;10.75;;;2.08;;
27225;SDS011;14732;51.074;3.788;2023-05-17T11:45:43;7.05;;;1.38;;
27225;SDS011;14732;51.074;3.788;2023-05-17T11:48:17;10.73;;;1.95;;
27225;SDS011;14732;51.074;3.788;2023-05-17T11:50:46;10.90;;;2.55;;
27225;SDS011;14732;51.074;3.788;2023-05-17T11:53:13;7.75;;;1.95;;
27225;SDS011;14732;51.074;3.788;2023-05-17T11:55:41;5.63;;;1.85;;
27225;SDS011;14732;51.074;3.788;2023-05-17T11:58:09;7.00;;;2.00;;
27225;SDS011;14732;51.074;3.788;2023-05-17T12:00:36;7.10;;;2.67;;
27225;SDS011;14732;51.074;3.788;2023-05-17T12:03:53;9.98;;;3.42;;
27225;SDS011;14732;51.074;3.788;2023-05-17T12:08:36;11.18;;;2.50;;
27225;SDS011;14732;51.074;3.788;2023-05-17T12:11:06;11.25;;;2.42;;
27225;SDS011;14732;51.074;3.788;2023-05-17T12:13:34;9.82;;;2.03;;
27225;SDS011;14732;51.074;3.788;2023-05-17T12:16:06;8.55;;;2.20;;
27225;SDS011;14732;51.074;3.788;2023-05-17T12:18:39;8.63;;;2.03;;
27225;SDS011;14732;51.074;3.788;2023-05-17T12:21:06;12.45;;;2.33;;
27225;SDS011;14732;51.074;3.788;2023-05-17T12:23:41;8.88;;;2.20;;
27225;SDS011;14732;51.074;3.788;2023-05-17T12:26:15;12.18;;;1.90;;
27225;SDS011;14732;51.074;3.788;2023-05-17T12:31:25;18.73;;;2.25;;
27225;SDS011;14732;51.074;3.788;2023-05-17T12:34:03;15.48;;;2.35;;
27225;SDS011;14732;51.074;3.788;2023-05-17T12:36:30;11.13;;;2.15;;
27225;SDS011;14732;51.074;3.788;2023-05-17T12:39:01;9.18;;;2.00;;
27225;SDS011;14732;51.074;3.788;2023-05-17T12:41:28;12.20;;;2.20;;
27225;SDS011;14732;51.074;3.788;2023-05-17T12:43:56;6.97;;;2.42;;
27225;SDS011;14732;51.074;3.788;2023-05-17T12:46:22;7.78;;;2.05;;
27225;SDS011;14732;51.074;3.788;2023-05-17T12:48:51;10.00;;;2.08;;
27225;SDS011;14732;51.074;3.788;2023-05-17T12:51:21;5.47;;;1.67;;
27225;SDS011;14732;51.074;3.788;2023-05-17T12:53:56;9.15;;;1.90;;
27225;SDS011;14732;51.074;3.788;2023-05-17T12:56:28;12.73;;;2.75;;
27225;SDS011;14732;51.074;3.788;2023-05-17T12:59:05;7.82;;;1.98;;
27225;SDS011;14732;51.074;3.788;2023-05-17T13:01:38;9.00;;;1.70;;
27225;SDS011;14732;51.074;3.788;2023-05-17T13:04:08;6.32;;;1.80;;
27225;SDS011;14732;51.074;3.788;2023-05-17T13:06:44;4.70;;;1.50;;
27225;SDS011;14732;51.074;3.788;2023-05-17T13:09:11;5.82;;;1.60;;
27225;SDS011;14732;51.074;3.788;2023-05-17T13:11:40;5.85;;;1.50;;
27225;SDS011;14732;51.074;3.788;2023-05-17T13:14:07;10.93;;;2.40;;
27225;SDS011;14732;51.074;3.788;2023-05-17T13:16:33;6.47;;;1.58;;
27225;SDS011;14732;51.074;3.788;2023-05-17T13:19:01;9.77;;;1.52;;
27225;SDS011;14732;51.074;3.788;2023-05-17T13:21:37;7.93;;;2.15;;
27225;SDS011;14732;51.074;3.788;2023-05-17T13:24:03;5.80;;;1.65;;
27225;SDS011;14732;51.074;3.788;2023-05-17T13:26:29;8.75;;;1.83;;
27225;SDS011;14732;51.074;3.788;2023-05-17T13:28:55;6.45;;;1.55;;
27225;SDS011;14732;51.074;3.788;2023-05-17T13:31:20;9.27;;;1.55;;
27225;SDS011;14732;51.074;3.788;2023-05-17T13:33:46;11.73;;;2.22;;
27225;SDS011;14732;51.074;3.788;2023-05-17T13:36:14;6.50;;;2.22;;
27225;SDS011;14732;51.074;3.788;2023-05-17T13:38:42;8.85;;;2.03;;
27225;SDS011;14732;51.074;3.788;2023-05-17T13:41:07;10.02;;;2.42;;
27225;SDS011;14732;51.074;3.788;2023-05-17T13:43:34;7.85;;;2.10;;
27225;SDS011;14732;51.074;3.788;2023-05-17T13:46:01;11.68;;;1.92;;
27225;SDS011;14732;51.074;3.788;2023-05-17T13:48:27;6.78;;;1.88;;
27225;SDS011;14732;51.074;3.788;2023-05-17T13:50:53;9.55;;;2.13;;
27225;SDS011;14732;51.074;3.788;2023-05-17T13:53:19;6.03;;;1.52;;
27225;SDS011;14732;51.074;3.788;2023-05-17T13:55:45;6.05;;;1.55;;
27225;SDS011;14732;51.074;3.788;2023-05-17T13:58:11;5.05;;;1.50;;
27225;SDS011;14732;51.074;3.788;2023-05-17T14:00:37;7.30;;;1.60;;
27225;SDS011;14732;51.074;3.788;2023-05-17T14:03:06;4.68;;;1.55;;
27225;SDS011;14732;51.074;3.788;2023-05-17T14:05:32;9.05;;;2.10;;
27225;SDS011;14732;51.074;3.788;2023-05-17T14:08:00;5.00;;;1.40;;
27225;SDS011;14732;51.074;3.788;2023-05-17T14:10:26;5.55;;;1.58;;
27225;SDS011;14732;51.074;3.788;2023-05-17T14:12:52;6.68;;;1.60;;
27225;SDS011;14732;51.074;3.788;2023-05-17T14:15:18;8.48;;;1.77;;
27225;SDS011;14732;51.074;3.788;2023-05-17T14:17:44;11.38;;;2.10;;
27225;SDS011;14732;51.074;3.788;2023-05-17T14:20:11;5.53;;;1.63;;
27225;SDS011;14732;51.074;3.788;2023-05-17T14:22:38;5.93;;;1.60;;
27225;SDS011;14732;51.074;3.788;2023-05-17T14:25:07;8.73;;;1.40;;
27225;SDS011;14732;51.074;3.788;2023-05-17T14:27:35;7.07;;;1.77;;
27225;SDS011;14732;51.074;3.788;2023-05-17T14:30:02;9.48;;;1.38;;
27225;SDS011;14732;51.074;3.788;2023-05-17T14:32:28;5.40;;;1.40;;
27225;SDS011;14732;51.074;3.788;2023-05-17T14:34:54;6.50;;;1.60;;
27225;SDS011;14732;51.074;3.788;2023-05-17T14:37:20;5.43;;;1.42;;
27225;SDS011;14732;51.074;3.788;2023-05-17T14:39:46;6.35;;;1.38;;
27225;SDS011;14732;51.074;3.788;2023-05-17T14:42:12;7.05;;;1.48;;
27225;SDS011;14732;51.074;3.788;2023-05-17T14:44:38;6.57;;;1.70;;
27225;SDS011;14732;51.074;3.788;2023-05-17T14:47:07;6.40;;;1.45;;
27225;SDS011;14732;51.074;3.788;2023-05-17T14:49:34;5.97;;;1.63;;
27225;SDS011;14732;51.074;3.788;2023-05-17T14:52:01;9.77;;;1.45;;
27225;SDS011;14732;51.074;3.788;2023-05-17T14:54:27;6.00;;;1.42;;
27225;SDS011;14732;51.074;3.788;2023-05-17T14:56:56;9.45;;;1.65;;
27225;SDS011;14732;51.074;3.788;2023-05-17T14:59:22;5.07;;;1.52;;
27225;SDS011;14732;51.074;3.788;2023-05-17T15:01:48;8.68;;;1.35;;
27225;SDS011;14732;51.074;3.788;2023-05-17T15:04:14;7.05;;;1.50;;
27225;SDS011;14732;51.074;3.788;2023-05-17T15:06:40;6.97;;;1.75;;
27225;SDS011;14732;51.074;3.788;2023-05-17T15:09:07;9.13;;;2.08;;
27225;SDS011;14732;51.074;3.788;2023-05-17T15:11:36;7.97;;;2.05;;
27225;SDS011;14732;51.074;3.788;2023-05-17T15:14:02;5.28;;;1.38;;
27225;SDS011;14732;51.074;3.788;2023-05-17T15:16:28;7.80;;;1.20;;
27225;SDS011;14732;51.074;3.788;2023-05-17T15:18:53;7.70;;;1.95;;
27225;SDS011;14732;51.074;3.788;2023-05-17T15:21:19;6.13;;;1.75;;